Time;durP1;ratioP1;P1;durP2;ratioP2;P2;SDS_P1;SDS_P2;PMS_P1;PMS_P2;Temp;Humidity;BMP_temperature;BMP_pressure;BME280_temperature;BME280_humidity;BME280_pressure;Samples;Min_cycle;Max_cycle;Signal;HPM_P1;HPM_P2
2023/05/14 00:01:27;;;;;;;4.15;3.50;;;21.50;62.30;;;;;;4995669;28;20039;-78
2023/05/14 00:03:53;;;;;;;4.35;3.65;;;21.40;62.30;;;;;;5012043;28;20414;-78
2023/05/14 00:06:19;;;;;;;4.07;3.38;;;21.40;62.40;;;;;;4998331;28;20122;-78
2023/05/14 00:08:44;;;;;;;4.40;3.60;;;21.40;62.40;;;;;;5033886;28;20038;-79
2023/05/14 00:11:10;;;;;;;4.30;3.85;;;21.30;62.40;;;;;;5015970;28;20478;-78
2023/05/14 00:13:36;;;;;;;4.18;3.60;;;21.30;62.40;;;;;;5015942;28;20033;-78
2023/05/14 00:16:02;;;;;;;4.90;4.03;;;21.20;62.40;;;;;;5016337;28;20030;-78
2023/05/14 00:18:27;;;;;;;4.57;3.80;;;21.20;62.40;;;;;;5015711;28;20033;-78
2023/05/14 00:20:53;;;;;;;6.00;3.92;;;21.20;62.40;;;;;;4998797;28;20034;-78
2023/05/14 00:23:22;;;;;;;4.40;3.75;;;21.10;62.40;;;;;;5015165;28;20030;-78
2023/05/14 00:25:49;;;;;;;4.90;3.85;;;21.10;62.40;;;;;;5015903;28;20030;-79
2023/05/14 00:28:15;;;;;;;4.53;3.90;;;21.10;62.40;;;;;;5031307;28;20382;-79
2023/05/14 00:30:41;;;;;;;5.78;4.25;;;21.00;62.40;;;;;;5031132;28;20034;-78
2023/05/14 00:33:06;;;;;;;4.90;4.05;;;21.00;62.50;;;;;;5014892;28;20037;-79
2023/05/14 00:35:35;;;;;;;4.70;3.80;;;20.90;62.40;;;;;;5014846;28;20026;-79
2023/05/14 00:38:02;;;;;;;5.03;4.28;;;20.90;62.50;;;;;;5014737;28;20038;-78
2023/05/14 00:40:28;;;;;;;4.60;3.78;;;20.90;62.50;;;;;;4998265;28;20133;-79
2023/05/14 00:42:54;;;;;;;4.70;3.90;;;20.80;62.50;;;;;;4981909;28;20129;-79
2023/05/14 00:45:21;;;;;;;3.97;3.58;;;20.80;62.60;;;;;;5031138;28;20179;-79
2023/05/14 00:47:50;;;;;;;4.70;4.07;;;20.80;62.70;;;;;;5031163;28;20033;-78
2023/05/14 00:50:17;;;;;;;5.15;4.05;;;20.70;62.70;;;;;;5015306;28;20040;-79
2023/05/14 00:52:43;;;;;;;5.40;4.38;;;20.70;62.70;;;;;;4999019;28;20462;-79
2023/05/14 00:55:15;;;;;;;4.63;3.90;;;20.70;62.70;;;;;;5015738;28;20022;-78
2023/05/14 00:57:41;;;;;;;5.78;4.10;;;20.60;62.70;;;;;;5031023;28;20034;-78
2023/05/14 01:00:07;;;;;;;5.40;3.72;;;20.60;62.80;;;;;;5047457;28;20042;-79
2023/05/14 01:02:33;;;;;;;5.15;3.88;;;20.50;62.80;;;;;;4998824;28;20061;-78
2023/05/14 01:04:59;;;;;;;5.30;4.22;;;20.50;62.80;;;;;;4998213;28;20037;-79
2023/05/14 01:07:34;;;;;;;5.40;3.85;;;20.50;62.90;;;;;;5030825;28;20534;-78
2023/05/14 01:10:07;;;;;;;4.38;3.85;;;20.40;62.90;;;;;;5047245;28;20065;-79
2023/05/14 01:12:59;;;;;;;4.82;4.32;;;20.40;62.90;;;;;;5014812;28;20068;-78
2023/05/14 01:15:28;;;;;;;4.60;3.90;;;20.40;63.00;;;;;;5031261;28;20414;-78
2023/05/14 01:18:00;;;;;;;5.35;4.00;;;20.30;63.00;;;;;;5046909;28;20467;-78
2023/05/14 01:20:26;;;;;;;5.40;4.45;;;20.30;63.10;;;;;;5046996;28;20040;-78
2023/05/14 01:22:52;;;;;;;4.90;4.18;;;20.30;63.10;;;;;;5048116;28;20117;-78
2023/05/14 01:25:18;;;;;;;4.97;4.00;;;20.20;63.20;;;;;;5013947;28;20525;-78
2023/05/14 01:28:11;;;;;;;5.70;4.55;;;20.20;63.20;;;;;;5047068;28;20108;-78
2023/05/14 01:30:41;;;;;;;5.55;3.97;;;20.10;63.30;;;;;;5030629;28;20041;-78
2023/05/14 01:33:14;;;;;;;4.88;3.75;;;20.10;63.30;;;;;;5014643;28;20030;-78
2023/05/14 01:35:41;;;;;;;5.20;4.18;;;20.10;63.40;;;;;;5014531;28;20451;-78
2023/05/14 01:38:12;;;;;;;5.85;4.40;;;20.00;63.40;;;;;;4981362;28;20386;-78
2023/05/14 01:40:38;;;;;;;6.07;4.53;;;20.00;63.40;;;;;;5013413;28;20041;-78
2023/05/14 01:43:05;;;;;;;4.50;3.97;;;20.00;63.50;;;;;;5013428;28;20046;-78
2023/05/14 01:45:33;;;;;;;5.53;4.45;;;19.90;63.50;;;;;;5013769;28;20037;-79
2023/05/14 01:47:59;;;;;;;6.32;4.30;;;19.90;63.60;;;;;;5029882;28;20091;-78
2023/05/14 01:50:25;;;;;;;4.85;4.18;;;19.90;63.60;;;;;;5013609;28;20132;-78
2023/05/14 01:52:55;;;;;;;7.28;4.32;;;19.80;63.60;;;;;;4997095;28;20026;-78
2023/05/14 01:55:23;;;;;;;4.78;4.03;;;19.80;63.60;;;;;;5047265;28;20458;-78
2023/05/14 01:57:49;;;;;;;4.60;4.10;;;19.80;63.60;;;;;;5014588;28;20018;-79
2023/05/14 02:00:15;;;;;;;5.18;4.30;;;19.70;63.70;;;;;;5029839;28;20042;-78
2023/05/14 02:02:41;;;;;;;4.70;4.00;;;19.70;63.70;;;;;;5014158;28;20037;-78
2023/05/14 02:05:11;;;;;;;4.93;4.13;;;19.70;63.70;;;;;;5013577;28;20030;-78
2023/05/14 02:07:37;;;;;;;4.85;4.13;;;19.60;63.70;;;;;;5029579;28;20034;-78
2023/05/14 02:10:03;;;;;;;4.65;3.97;;;19.60;63.80;;;;;;5029506;28;20033;-78
2023/05/14 02:12:29;;;;;;;5.10;4.13;;;19.60;63.80;;;;;;5013914;28;20037;-78
2023/05/14 02:14:55;;;;;;;6.97;4.13;;;19.50;63.80;;;;;;5014467;28;20038;-78
2023/05/14 02:17:20;;;;;;;5.15;4.53;;;19.50;63.80;;;;;;5046049;28;20399;-79
2023/05/14 02:19:46;;;;;;;4.90;4.18;;;19.50;63.90;;;;;;5012977;28;20038;-78
2023/05/14 02:22:12;;;;;;;4.95;4.22;;;19.40;63.80;;;;;;4996187;28;20069;-79
2023/05/14 02:24:38;;;;;;;5.30;4.15;;;19.40;63.90;;;;;;4996523;28;20121;-79
2023/05/14 02:27:05;;;;;;;5.28;4.53;;;19.40;63.90;;;;;;5013119;28;20069;-78
2023/05/14 02:29:30;;;;;;;6.00;4.70;;;19.40;64.10;;;;;;4996299;28;20026;-78
2023/05/14 02:31:56;;;;;;;5.32;4.30;;;19.30;63.90;;;;;;5012778;28;20479;-78
2023/05/14 02:34:22;;;;;;;5.32;4.63;;;19.30;63.90;;;;;;5012583;28;20034;-78
2023/05/14 02:36:49;;;;;;;5.10;4.43;;;19.30;64.60;;;;;;4996660;28;20053;-78
2023/05/14 02:39:15;;;;;;;6.18;4.55;;;19.20;64.00;;;;;;4996676;28;20467;-78
2023/05/14 02:41:43;;;;;;;5.55;4.50;;;19.20;64.00;;;;;;5013344;28;20057;-78
2023/05/14 02:44:09;;;;;;;5.18;4.40;;;19.10;64.00;;;;;;4996546;28;20378;-78
2023/05/14 02:46:35;;;;;;;6.20;4.78;;;19.10;64.00;;;;;;5012630;28;20076;-78
2023/05/14 02:49:01;;;;;;;5.88;4.68;;;19.10;64.10;;;;;;4996240;28;20038;-78
2023/05/14 02:51:27;;;;;;;5.10;4.43;;;19.10;64.10;;;;;;5013051;28;20061;-78
2023/05/14 02:53:53;;;;;;;5.03;4.00;;;19.00;64.10;;;;;;4983589;28;20041;-78
2023/05/14 02:56:19;;;;;;;5.78;4.45;;;19.00;64.20;;;;;;5003254;28;20041;-78
2023/05/14 02:58:46;;;;;;;5.97;4.75;;;18.90;64.20;;;;;;5002973;28;20098;-78
2023/05/14 03:01:11;;;;;;;6.20;4.97;;;18.90;64.20;;;;;;5030791;28;20076;-79
2023/05/14 03:03:37;;;;;;;4.93;4.43;;;18.90;64.30;;;;;;5013298;28;20412;-79
2023/05/14 03:06:04;;;;;;;5.45;4.32;;;18.90;64.30;;;;;;5013072;28;20092;-78
2023/05/14 03:08:29;;;;;;;5.30;4.53;;;18.90;64.30;;;;;;5012641;28;20451;-78
2023/05/14 03:10:55;;;;;;;4.95;4.15;;;18.80;64.30;;;;;;4996175;28;20030;-78
2023/05/14 03:13:21;;;;;;;5.63;4.50;;;18.80;64.30;;;;;;5013100;28;20030;-78
2023/05/14 03:15:47;;;;;;;5.07;4.32;;;18.70;64.30;;;;;;4996392;28;20387;-78
2023/05/14 03:18:13;;;;;;;5.53;4.68;;;18.70;64.30;;;;;;4996077;28;20038;-79
2023/05/14 03:20:41;;;;;;;5.45;4.50;;;18.70;64.40;;;;;;5045252;28;20041;-79
2023/05/14 03:23:07;;;;;;;5.10;4.47;;;18.60;64.40;;;;;;5012544;28;20030;-78
2023/05/14 03:25:33;;;;;;;5.53;4.70;;;18.60;64.40;;;;;;5013437;28;20037;-78
2023/05/14 03:27:59;;;;;;;5.63;4.75;;;18.60;64.50;;;;;;5012527;28;20030;-78
2023/05/14 03:30:24;;;;;;;5.18;4.38;;;18.60;64.50;;;;;;5046094;28;20036;-78
2023/05/14 03:32:50;;;;;;;4.75;4.28;;;18.50;64.50;;;;;;5029282;28;20088;-78
2023/05/14 03:35:16;;;;;;;5.80;4.95;;;18.50;64.50;;;;;;4996112;28;20036;-78
2023/05/14 03:37:42;;;;;;;5.50;4.60;;;18.40;64.50;;;;;;4995935;28;20536;-78
2023/05/14 03:40:08;;;;;;;5.30;4.80;;;18.40;64.60;;;;;;4981914;28;20042;-78
2023/05/14 03:42:35;;;;;;;5.20;4.15;;;18.40;64.60;;;;;;5015429;28;20137;-78
2023/05/14 03:45:02;;;;;;;6.05;4.78;;;18.40;64.60;;;;;;4999742;28;20543;-78
2023/05/14 03:47:27;;;;;;;6.13;4.70;;;18.30;64.60;;;;;;5015555;28;20030;-79
2023/05/14 03:49:54;;;;;;;6.00;5.15;;;18.30;64.70;;;;;;5015731;28;20033;-78
2023/05/14 03:52:19;;;;;;;5.38;4.43;;;18.30;64.70;;;;;;4999393;28;20026;-78
2023/05/14 03:54:45;;;;;;;5.10;4.18;;;18.30;64.70;;;;;;5015733;28;20034;-78
2023/05/14 03:57:11;;;;;;;6.00;4.88;;;18.20;64.80;;;;;;5032079;28;20486;-79
2023/05/14 03:59:36;;;;;;;6.53;4.82;;;18.20;64.80;;;;;;4983131;28;20049;-79
2023/05/14 04:02:02;;;;;;;5.68;5.03;;;18.20;64.90;;;;;;4999358;28;20030;-79
2023/05/14 04:04:28;;;;;;;6.30;4.93;;;18.10;64.80;;;;;;5015612;28;20057;-79
2023/05/14 04:06:54;;;;;;;5.10;4.55;;;18.10;64.90;;;;;;5032014;28;20494;-79
2023/05/14 04:09:19;;;;;;;5.85;5.07;;;18.10;65.00;;;;;;5015189;28;20504;-79
2023/05/14 04:11:45;;;;;;;5.97;5.10;;;18.00;64.90;;;;;;4999074;28;20585;-79
2023/05/14 04:14:11;;;;;;;5.80;4.95;;;18.00;65.60;;;;;;5049105;28;20041;-79
2023/05/14 04:16:37;;;;;;;5.78;4.90;;;17.90;64.90;;;;;;4983015;28;20026;-79
2023/05/14 04:19:04;;;;;;;6.28;4.78;;;17.90;64.90;;;;;;5015448;28;20033;-78
2023/05/14 04:21:30;;;;;;;6.40;5.30;;;17.90;65.00;;;;;;5015284;28;20378;-79
2023/05/14 04:23:56;;;;;;;6.38;5.10;;;17.90;65.10;;;;;;5031286;28;20034;-78
2023/05/14 04:26:21;;;;;;;6.18;5.00;;;17.80;65.10;;;;;;5016617;28;20033;-78
2023/05/14 04:28:47;;;;;;;6.35;4.75;;;17.80;65.10;;;;;;5015767;28;20382;-78
2023/05/14 04:31:14;;;;;;;6.03;5.10;;;17.80;65.10;;;;;;5014998;28;20038;-78
2023/05/14 04:33:42;;;;;;;6.75;5.38;;;17.70;65.10;;;;;;4999109;28;20116;-78
2023/05/14 04:36:08;;;;;;;6.43;5.22;;;17.70;65.20;;;;;;4999073;28;20041;-78
2023/05/14 04:38:33;;;;;;;5.88;5.28;;;17.70;65.20;;;;;;5014778;28;20475;-79
2023/05/14 04:40:59;;;;;;;6.00;4.85;;;17.70;65.30;;;;;;5014498;28;20042;-78
2023/05/14 04:43:25;;;;;;;9.00;5.55;;;17.70;65.30;;;;;;5014667;28;20038;-78
2023/05/14 04:45:51;;;;;;;6.10;4.93;;;17.60;65.30;;;;;;5047713;28;20172;-78
2023/05/14 04:48:17;;;;;;;5.95;5.20;;;17.60;65.30;;;;;;5014707;28;20030;-79
2023/05/14 04:50:43;;;;;;;7.03;5.35;;;17.60;65.40;;;;;;5030488;28;20022;-78
2023/05/14 04:53:09;;;;;;;5.63;4.70;;;17.50;65.40;;;;;;5014327;28;20041;-78
2023/05/14 04:55:35;;;;;;;6.55;5.20;;;17.50;65.40;;;;;;4998166;28;20037;-78
2023/05/14 04:58:01;;;;;;;5.57;4.90;;;17.50;65.40;;;;;;4998126;28;20030;-77
2023/05/14 05:00:28;;;;;;;6.28;5.15;;;17.50;65.60;;;;;;5014387;28;20360;-78
2023/05/14 05:02:54;;;;;;;6.38;5.25;;;17.40;65.50;;;;;;5031573;28;20048;-78
2023/05/14 05:05:19;;;;;;;5.82;5.22;;;17.40;65.60;;;;;;5014270;28;20025;-78
2023/05/14 05:07:45;;;;;;;6.07;5.10;;;17.40;65.60;;;;;;5014395;28;20125;-79
2023/05/14 05:10:11;;;;;;;7.05;5.45;;;17.40;65.60;;;;;;5013883;28;20037;-78
2023/05/14 05:12:37;;;;;;;7.20;5.47;;;17.30;65.60;;;;;;5015610;28;20068;-78
2023/05/14 05:15:03;;;;;;;6.85;5.25;;;17.30;65.70;;;;;;4997830;28;20483;-78
2023/05/14 05:17:29;;;;;;;6.65;4.93;;;17.30;65.80;;;;;;5014037;28;20133;-78
2023/05/14 05:19:55;;;;;;;6.25;5.55;;;17.30;65.80;;;;;;4981500;28;20125;-78
2023/05/14 05:22:22;;;;;;;6.47;5.13;;;17.30;65.90;;;;;;5014035;28;20041;-79
2023/05/14 05:24:47;;;;;;;6.05;5.03;;;17.20;65.80;;;;;;5014288;28;20018;-78
2023/05/14 05:27:13;;;;;;;6.22;5.28;;;17.20;65.90;;;;;;4981710;28;20497;-78
2023/05/14 05:29:39;;;;;;;6.95;5.78;;;17.20;65.90;;;;;;4997539;28;20483;-78
2023/05/14 05:32:06;;;;;;;6.07;5.20;;;17.20;66.00;;;;;;5013937;28;20034;-78
2023/05/14 05:34:32;;;;;;;6.97;5.30;;;17.10;66.00;;;;;;5046850;28;20388;-79
2023/05/14 05:36:57;;;;;;;6.45;5.00;;;17.20;66.00;;;;;;4997272;28;20034;-78
2023/05/14 05:39:23;;;;;;;6.57;5.60;;;17.10;66.00;;;;;;5017231;28;20029;-78
2023/05/14 05:41:49;;;;;;;6.30;5.28;;;17.10;66.10;;;;;;5020051;28;20552;-78
2023/05/14 05:44:14;;;;;;;6.65;5.38;;;17.10;66.10;;;;;;5020364;28;20104;-78
2023/05/14 05:46:40;;;;;;;6.28;5.35;;;17.10;66.20;;;;;;5016835;28;20386;-78
2023/05/14 05:49:06;;;;;;;7.32;5.20;;;17.10;66.20;;;;;;5014555;28;20458;-77
2023/05/14 05:51:32;;;;;;;7.32;5.82;;;17.10;66.20;;;;;;4997297;28;20116;-78
2023/05/14 05:53:57;;;;;;;6.88;5.38;;;17.10;66.30;;;;;;5013678;28;20032;-78
2023/05/14 05:56:23;;;;;;;5.63;5.03;;;17.10;66.30;;;;;;5046299;28;20052;-78
2023/05/14 05:58:49;;;;;;;6.00;5.13;;;17.10;66.30;;;;;;5014258;28;20084;-78
2023/05/14 06:01:15;;;;;;;6.68;5.55;;;17.10;66.30;;;;;;5013393;28;20125;-78
2023/05/14 06:03:40;;;;;;;7.30;5.97;;;17.10;66.30;;;;;;4996395;28;20026;-78
2023/05/14 06:06:06;;;;;;;7.30;6.05;;;17.10;66.40;;;;;;4996812;28;20030;-78
2023/05/14 06:08:32;;;;;;;6.70;5.57;;;17.10;66.40;;;;;;4996909;28;20033;-78
2023/05/14 06:10:58;;;;;;;7.10;5.93;;;17.10;66.40;;;;;;4996975;28;20038;-78
2023/05/14 06:13:24;;;;;;;7.00;5.55;;;17.10;66.40;;;;;;5013407;28;20025;-79
2023/05/14 06:15:49;;;;;;;7.85;5.20;;;17.10;66.40;;;;;;4996672;28;20041;-78
2023/05/14 06:18:15;;;;;;;7.03;5.70;;;17.10;66.40;;;;;;5013032;28;20037;-78
2023/05/14 06:20:41;;;;;;;6.25;5.30;;;17.10;66.50;;;;;;5012965;28;20574;-78
2023/05/14 06:23:07;;;;;;;6.43;5.40;;;17.10;66.50;;;;;;5013886;28;20030;-78
2023/05/14 06:25:33;;;;;;;6.57;5.38;;;17.10;66.50;;;;;;5012683;28;20033;-78
2023/05/14 06:27:58;;;;;;;7.32;5.95;;;17.10;66.60;;;;;;5029698;28;20037;-78
2023/05/14 06:30:24;;;;;;;6.40;5.35;;;17.10;66.60;;;;;;5013233;28;20037;-78
2023/05/14 06:32:50;;;;;;;6.30;5.45;;;17.10;66.60;;;;;;4997387;28;20474;-78
2023/05/14 06:35:18;;;;;;;6.25;5.38;;;17.10;66.60;;;;;;5012830;28;20092;-78
2023/05/14 06:37:44;;;;;;;6.20;5.47;;;17.10;66.60;;;;;;5028843;28;20026;-78
2023/05/14 06:40:11;;;;;;;7.40;5.57;;;17.10;66.70;;;;;;5029292;28;20042;-78
2023/05/14 06:42:36;;;;;;;8.73;6.03;;;17.10;66.70;;;;;;5013847;28;20120;-78
2023/05/14 06:45:04;;;;;;;6.05;5.20;;;17.10;66.70;;;;;;5012771;28;20475;-78
2023/05/14 06:47:30;;;;;;;6.68;5.70;;;17.10;66.80;;;;;;4997031;28;20080;-78
2023/05/14 06:49:57;;;;;;;7.60;6.30;;;17.10;66.80;;;;;;5045927;28;20042;-78
2023/05/14 06:52:24;;;;;;;6.68;5.43;;;17.10;66.80;;;;;;5012588;28;20022;-78
2023/05/14 06:54:50;;;;;;;6.60;5.55;;;17.10;66.90;;;;;;4996661;28;20033;-78
2023/05/14 06:57:15;;;;;;;7.32;5.70;;;17.10;66.90;;;;;;4996350;28;20076;-78
2023/05/14 06:59:41;;;;;;;6.47;5.63;;;17.10;66.90;;;;;;5012215;28;20120;-78
2023/05/14 07:02:07;;;;;;;7.32;5.80;;;17.10;66.90;;;;;;5012407;28;20038;-78
2023/05/14 07:04:32;;;;;;;6.13;5.53;;;17.10;66.90;;;;;;5012259;28;20026;-78
2023/05/14 07:06:58;;;;;;;7.30;6.10;;;17.10;67.00;;;;;;5045480;28;20452;-79
2023/05/14 07:09:24;;;;;;;6.95;5.40;;;17.20;67.00;;;;;;4996018;28;20038;-78
2023/05/14 07:11:50;;;;;;;6.57;5.50;;;17.20;67.10;;;;;;5012294;28;20030;-78
2023/05/14 07:14:15;;;;;;;7.32;5.20;;;17.20;67.10;;;;;;5013121;28;20037;-78
2023/05/14 07:16:41;;;;;;;6.63;5.63;;;17.20;67.10;;;;;;5017198;28;20026;-78
2023/05/14 07:19:07;;;;;;;5.97;5.38;;;17.20;67.10;;;;;;5016027;28;20034;-78
2023/05/14 07:21:34;;;;;;;7.15;5.57;;;17.20;67.20;;;;;;5016300;28;20116;-78
2023/05/14 07:23:59;;;;;;;6.55;5.72;;;17.30;67.20;;;;;;5048981;28;20034;-78
2023/05/14 07:26:25;;;;;;;6.50;5.45;;;17.30;67.20;;;;;;4999586;28;20021;-78
2023/05/14 07:28:51;;;;;;;6.70;5.10;;;17.30;67.20;;;;;;5015966;28;20080;-78
2023/05/14 07:31:17;;;;;;;6.38;5.38;;;17.30;67.20;;;;;;4999723;28;20454;-78
2023/05/14 07:33:42;;;;;;;7.80;5.95;;;17.40;67.20;;;;;;5016347;28;20092;-78
2023/05/14 07:36:08;;;;;;;6.78;5.72;;;17.40;67.20;;;;;;5016056;28;20031;-78
2023/05/14 07:38:34;;;;;;;7.53;5.72;;;17.40;67.20;;;;;;5000466;28;20030;-78
2023/05/14 07:41:00;;;;;;;6.03;5.43;;;17.50;67.20;;;;;;4999342;28;20037;-78
2023/05/14 07:43:25;;;;;;;7.97;5.45;;;17.50;67.20;;;;;;5015869;28;20045;-78
2023/05/14 07:45:51;;;;;;;6.95;5.47;;;17.50;67.10;;;;;;5015576;28;20509;-78
2023/05/14 07:48:17;;;;;;;6.50;5.15;;;17.50;67.10;;;;;;5015869;28;20088;-78
2023/05/14 07:50:43;;;;;;;6.97;5.40;;;17.60;67.10;;;;;;5048803;28;20030;-78
2023/05/14 07:53:08;;;;;;;7.60;4.88;;;17.60;67.00;;;;;;5015471;28;20096;-78
2023/05/14 07:55:34;;;;;;;5.70;5.10;;;17.70;67.00;;;;;;5015468;28;20120;-77
2023/05/14 07:58:00;;;;;;;5.25;4.72;;;17.70;66.90;;;;;;5015527;28;20125;-78
2023/05/14 08:00:26;;;;;;;6.95;5.68;;;17.80;67.00;;;;;;4999202;28;20038;-78
2023/05/14 08:02:51;;;;;;;5.70;4.85;;;17.80;66.80;;;;;;4983024;28;20038;-78
2023/05/14 08:05:17;;;;;;;6.28;5.22;;;17.90;66.80;;;;;;5049446;28;20443;-78
2023/05/14 08:07:43;;;;;;;6.50;5.00;;;17.90;66.70;;;;;;5031763;28;20041;-78
2023/05/14 08:10:09;;;;;;;5.97;4.97;;;18.00;66.70;;;;;;5049153;28;20124;-78
2023/05/14 08:12:35;;;;;;;6.25;5.30;;;18.10;66.70;;;;;;4999779;28;20542;-78
2023/05/14 08:15:01;;;;;;;5.68;4.97;;;18.10;66.60;;;;;;5016048;28;20034;-78
2023/05/14 08:17:27;;;;;;;5.97;4.65;;;18.20;66.50;;;;;;4999219;28;20100;-78
2023/05/14 08:19:53;;;;;;;5.60;4.75;;;18.20;66.40;;;;;;5047991;28;20042;-78
2023/05/14 08:22:19;;;;;;;5.90;5.13;;;18.30;66.30;;;;;;5017330;28;20110;-78
2023/05/14 08:24:44;;;;;;;5.25;4.63;;;18.40;66.30;;;;;;5018388;28;20026;-78
2023/05/14 08:27:10;;;;;;;6.20;4.70;;;18.50;66.30;;;;;;5002340;28;20030;-78
2023/05/14 08:29:36;;;;;;;5.93;4.60;;;18.50;66.10;;;;;;5021823;28;20034;-77
2023/05/14 08:32:02;;;;;;;6.32;5.22;;;18.60;66.10;;;;;;5019619;28;20034;-78
2023/05/14 08:34:28;;;;;;;6.22;5.05;;;18.70;66.00;;;;;;4999615;28;20394;-78
2023/05/14 08:36:54;;;;;;;5.45;4.55;;;18.80;66.00;;;;;;5015156;28;20034;-78
2023/05/14 08:39:19;;;;;;;5.47;4.50;;;18.80;65.90;;;;;;4998585;28;20028;-78
2023/05/14 08:41:45;;;;;;;6.15;4.57;;;18.90;65.80;;;;;;5014752;28;20128;-78
2023/05/14 08:44:17;;;;;;;5.35;4.50;;;19.00;65.80;;;;;;5014440;28;20449;-78
2023/05/14 08:46:44;;;;;;;5.20;3.70;;;19.00;65.80;;;;;;4999095;28;20029;-78
2023/05/14 08:49:21;;;;;;;4.93;3.95;;;19.10;65.60;;;;;;5015796;28;20092;-78
2023/05/14 08:51:47;;;;;;;6.10;4.28;;;19.20;65.70;;;;;;5030881;28;20113;-78
2023/05/14 08:54:16;;;;;;;5.03;4.15;;;19.20;65.60;;;;;;4998099;28;20136;-78
2023/05/14 08:56:45;;;;;;;4.70;4.07;;;19.30;65.50;;;;;;5031321;28;20022;-78
2023/05/14 08:59:12;;;;;;;5.93;4.30;;;19.40;66.20;;;;;;5014227;28;20029;-79
2023/05/14 09:01:43;;;;;;;5.93;4.40;;;19.40;65.40;;;;;;5030837;28;20054;-78
2023/05/14 09:04:10;;;;;;;4.75;3.78;;;19.50;65.40;;;;;;5047727;28;20068;-78
2023/05/14 09:06:36;;;;;;;4.35;3.90;;;19.60;65.40;;;;;;5014613;28;20386;-78
2023/05/14 09:09:03;;;;;;;6.93;4.60;;;19.60;65.30;;;;;;4998062;28;20037;-79
2023/05/14 09:11:29;;;;;;;5.32;4.00;;;19.70;65.30;;;;;;4998236;28;20098;-79
2023/05/14 09:13:55;;;;;;;4.45;3.83;;;19.80;65.30;;;;;;5030665;28;20034;-79
2023/05/14 09:16:22;;;;;;;4.70;3.53;;;19.90;65.30;;;;;;5014497;28;20041;-78
2023/05/14 09:18:49;;;;;;;4.70;3.75;;;20.00;65.20;;;;;;5030486;28;20030;-78
2023/05/14 09:21:17;;;;;;;4.60;3.67;;;20.00;65.10;;;;;;5014179;28;20508;-78
2023/05/14 09:23:43;;;;;;;4.05;3.63;;;20.10;65.10;;;;;;5030540;28;20529;-78
2023/05/14 09:26:10;;;;;;;4.43;3.55;;;20.20;64.90;;;;;;5015479;28;20025;-78
2023/05/14 09:28:39;;;;;;;4.05;3.20;;;20.30;64.90;;;;;;5013935;28;20117;-78
2023/05/14 09:31:05;;;;;;;4.18;3.45;;;20.40;64.80;;;;;;5014713;28;20125;-78
2023/05/14 09:33:31;;;;;;;4.47;3.40;;;20.50;64.70;;;;;;4997690;28;20025;-78
2023/05/14 09:35:59;;;;;;;3.95;3.20;;;20.60;64.70;;;;;;5015003;28;20030;-78
2023/05/14 09:38:32;;;;;;;3.78;3.20;;;20.70;64.70;;;;;;5030002;28;20447;-79
2023/05/14 09:41:01;;;;;;;3.83;3.30;;;20.80;64.70;;;;;;5013667;28;20046;-78
2023/05/14 09:43:28;;;;;;;4.18;3.60;;;20.90;64.60;;;;;;4997348;28;20069;-78
2023/05/14 09:45:54;;;;;;;4.28;3.60;;;21.10;64.60;;;;;;4997401;28;20033;-78
2023/05/14 09:48:21;;;;;;;3.53;2.97;;;21.10;64.60;;;;;;5046554;28;20038;-78
2023/05/14 09:50:46;;;;;;;4.72;3.72;;;21.20;64.60;;;;;;4981373;28;20045;-78
2023/05/14 09:53:13;;;;;;;3.80;3.25;;;21.30;64.60;;;;;;5013287;28;20030;-78
2023/05/14 09:55:39;;;;;;;4.35;3.83;;;21.50;64.70;;;;;;5014233;28;20034;-78
2023/05/14 09:58:05;;;;;;;3.65;3.00;;;21.50;64.60;;;;;;5013670;28;20032;-78
2023/05/14 10:00:32;;;;;;;4.00;3.10;;;21.70;64.70;;;;;;4996894;28;20486;-79
2023/05/14 10:02:58;;;;;;;4.25;3.08;;;21.80;64.70;;;;;;5029637;28;20459;-79
2023/05/14 10:05:25;;;;;;;4.40;3.17;;;21.90;64.70;;;;;;5013380;28;20485;-78
2023/05/14 10:07:55;;;;;;;4.30;3.20;;;22.00;64.60;;;;;;4996828;28;20030;-78
2023/05/14 10:10:25;;;;;;;3.25;2.80;;;22.10;64.50;;;;;;5013165;28;20041;-79
2023/05/14 10:12:56;;;;;;;3.42;2.90;;;22.20;64.50;;;;;;5029769;28;20116;-78
2023/05/14 10:16:07;;;;;;;3.28;2.78;;;22.30;64.30;;;;;;4997840;28;20037;-79
2023/05/14 10:18:39;;;;;;;3.15;2.45;;;22.40;64.40;;;;;;4993082;28;20034;-78
2023/05/14 10:21:07;;;;;;;3.20;2.63;;;22.50;64.20;;;;;;4992514;28;20446;-78
2023/05/14 10:23:36;;;;;;;3.10;2.70;;;22.60;64.30;;;;;;5028443;28;20482;-78
2023/05/14 10:26:03;;;;;;;3.10;2.67;;;22.70;64.30;;;;;;5013512;28;20544;-78
2023/05/14 10:28:29;;;;;;;2.97;2.63;;;22.80;64.20;;;;;;4996514;28;20029;-78
2023/05/14 10:30:55;;;;;;;3.28;2.70;;;22.80;64.30;;;;;;5012942;28;20034;-79
2023/05/14 10:33:21;;;;;;;3.20;2.80;;;23.00;64.50;;;;;;4996696;28;20036;-78
2023/05/14 10:35:55;;;;;;;3.05;2.70;;;23.00;64.50;;;;;;4996743;28;20042;-78
2023/05/14 10:38:33;;;;;;;3.17;2.70;;;23.20;64.60;;;;;;5013712;28;20084;-79
2023/05/14 10:41:09;;;;;;;2.70;2.50;;;23.30;64.60;;;;;;5029143;28;20145;-78
2023/05/14 10:43:40;;;;;;;3.00;2.67;;;23.40;64.60;;;;;;5012406;28;20399;-78
2023/05/14 10:46:07;;;;;;;3.42;2.67;;;23.40;64.60;;;;;;5012685;28;20034;-78
2023/05/14 10:48:33;;;;;;;2.85;2.58;;;23.60;64.60;;;;;;5012214;28;20030;-78
2023/05/14 10:51:01;;;;;;;2.78;2.50;;;23.70;64.50;;;;;;5013471;28;20041;-78
2023/05/14 10:53:36;;;;;;;2.70;2.47;;;23.70;64.40;;;;;;5012378;28;20054;-78
2023/05/14 10:56:10;;;;;;;3.53;2.88;;;23.90;65.10;;;;;;5029191;28;20029;-78
2023/05/14 10:58:37;;;;;;;2.97;2.63;;;23.90;64.40;;;;;;5012177;28;20030;-79
2023/05/14 11:01:09;;;;;;;2.92;2.25;;;24.00;64.40;;;;;;5028474;28;20022;-79
2023/05/14 11:03:41;;;;;;;3.30;2.67;;;24.10;64.50;;;;;;5029077;28;20030;-79
2023/05/14 11:06:08;;;;;;;3.08;2.75;;;24.20;64.50;;;;;;5028554;28;20052;-79
2023/05/14 11:08:35;;;;;;;2.95;2.67;;;24.20;64.20;;;;;;5028825;28;20018;-78
2023/05/14 11:11:01;;;;;;;2.70;2.50;;;24.30;64.10;;;;;;5012809;28;20038;-79
2023/05/14 11:13:27;;;;;;;3.65;2.80;;;24.40;64.00;;;;;;5034528;28;20022;-79
2023/05/14 11:15:53;;;;;;;3.33;2.88;;;24.40;63.80;;;;;;5003393;28;20037;-79
2023/05/14 11:18:31;;;;;;;3.15;2.72;;;24.40;63.70;;;;;;4999876;28;20030;-80
2023/05/14 11:20:59;;;;;;;3.22;2.78;;;24.50;63.60;;;;;;5015807;28;20034;-79
2023/05/14 11:23:25;;;;;;;3.05;2.65;;;24.50;63.50;;;;;;5015686;28;20025;-79
2023/05/14 11:25:55;;;;;;;3.50;2.63;;;24.60;63.60;;;;;;5045777;28;20038;-79
2023/05/14 11:28:22;;;;;;;3.10;2.58;;;24.60;63.60;;;;;;5012324;28;20038;-79
2023/05/14 11:30:49;;;;;;;3.13;2.55;;;24.60;63.40;;;;;;5028821;28;20037;-79
2023/05/14 11:33:15;;;;;;;3.00;2.70;;;24.60;63.30;;;;;;5028862;28;20034;-79
2023/05/14 11:35:44;;;;;;;4.05;2.90;;;24.70;63.20;;;;;;5028641;28;20089;-78
2023/05/14 11:38:16;;;;;;;3.13;2.83;;;24.70;63.10;;;;;;4996737;28;20030;-79
2023/05/14 11:40:51;;;;;;;3.45;2.75;;;24.70;62.90;;;;;;5028841;28;20088;-79
2023/05/14 11:43:17;;;;;;;2.97;2.55;;;24.70;62.90;;;;;;5012748;28;20054;-79
2023/05/14 11:45:49;;;;;;;3.28;2.97;;;24.80;62.80;;;;;;5012186;28;20152;-79
2023/05/14 11:48:15;;;;;;;3.33;2.80;;;24.70;62.70;;;;;;5028094;28;20045;-79
2023/05/14 11:50:47;;;;;;;3.33;2.80;;;24.80;62.70;;;;;;4995758;28;20034;-78
2023/05/14 11:53:17;;;;;;;3.03;2.72;;;24.80;62.60;;;;;;4996016;28;20470;-79
2023/05/14 11:55:43;;;;;;;3.13;2.80;;;24.80;62.60;;;;;;5045274;28;20447;-79
2023/05/14 11:58:08;;;;;;;3.38;3.00;;;24.80;62.50;;;;;;4995799;28;20113;-79
2023/05/14 12:00:35;;;;;;;3.90;2.85;;;24.80;62.40;;;;;;5013378;28;20053;-78
2023/05/14 12:03:00;;;;;;;4.05;3.00;;;24.80;62.40;;;;;;5015242;28;20459;-78
2023/05/14 12:05:26;;;;;;;3.67;2.70;;;24.80;62.50;;;;;;5015831;28;20037;-78
2023/05/14 12:07:52;;;;;;;3.80;3.25;;;24.80;62.60;;;;;;5016373;28;20038;-78
2023/05/14 12:10:18;;;;;;;3.28;2.97;;;24.80;62.70;;;;;;5016333;28;20039;-78
2023/05/14 12:12:47;;;;;;;3.78;2.75;;;24.80;62.60;;;;;;5015476;28;20388;-78
2023/05/14 12:15:15;;;;;;;3.03;2.55;;;24.80;62.50;;;;;;5048406;28;20076;-79
2023/05/14 12:17:41;;;;;;;3.10;2.45;;;24.80;62.50;;;;;;5048641;28;20461;-78
2023/05/14 12:20:11;;;;;;;3.10;2.70;;;24.80;62.50;;;;;;5031549;28;20034;-78
2023/05/14 12:22:37;;;;;;;2.67;2.45;;;24.80;62.40;;;;;;5015279;28;20030;-78
2023/05/14 12:25:03;;;;;;;3.08;2.65;;;24.80;62.30;;;;;;5015708;28;20034;-79
2023/05/14 12:27:29;;;;;;;3.28;2.50;;;24.80;62.30;;;;;;5015424;28;20375;-78
2023/05/14 12:30:05;;;;;;;2.50;2.30;;;24.80;62.50;;;;;;5048821;28;20077;-78
2023/05/14 12:32:36;;;;;;;2.80;2.47;;;24.90;62.50;;;;;;5015358;28;20124;-78
2023/05/14 12:35:02;;;;;;;2.60;2.38;;;24.80;62.30;;;;;;5016003;28;20038;-79
2023/05/14 12:37:28;;;;;;;2.97;2.38;;;24.90;62.40;;;;;;4998739;28;20029;-79
2023/05/14 12:39:54;;;;;;;2.58;2.35;;;24.90;62.30;;;;;;5014628;28;20125;-78
2023/05/14 12:42:19;;;;;;;2.90;2.53;;;24.90;62.20;;;;;;5047524;28;20091;-79
2023/05/14 12:44:45;;;;;;;3.17;2.55;;;24.90;62.00;;;;;;4998880;28;20058;-78
2023/05/14 12:47:11;;;;;;;2.67;2.47;;;24.90;62.00;;;;;;5016209;28;20513;-78